sensor_id;sensor_type;location;lat;lon;timestamp;P1;durP1;ratioP1;P2;durP2;ratioP2
6426;SDS011;3246;42.664;23.308;2022-12-07T00:00:06;23.63;;;15.63;;
6426;SDS011;3246;42.664;23.308;2022-12-07T00:02:33;20.77;;;13.10;;
6426;SDS011;3246;42.664;23.308;2022-12-07T00:04:59;23.63;;;13.77;;
6426;SDS011;3246;42.664;23.308;2022-12-07T00:07:27;21.10;;;13.63;;
6426;SDS011;3246;42.664;23.308;2022-12-07T00:09:54;23.90;;;14.00;;
6426;SDS011;3246;42.664;23.308;2022-12-07T00:12:20;22.00;;;14.37;;
6426;SDS011;3246;42.664;23.308;2022-12-07T00:14:47;27.20;;;13.73;;
6426;SDS011;3246;42.664;23.308;2022-12-07T00:17:13;24.80;;;13.77;;
6426;SDS011;3246;42.664;23.308;2022-12-07T00:19:40;23.33;;;13.77;;
6426;SDS011;3246;42.664;23.308;2022-12-07T00:22:06;25.00;;;14.53;;
6426;SDS011;3246;42.664;23.308;2022-12-07T00:24:34;23.10;;;13.83;;
6426;SDS011;3246;42.664;23.308;2022-12-07T00:27:00;27.10;;;14.77;;
6426;SDS011;3246;42.664;23.308;2022-12-07T00:29:27;26.50;;;14.30;;
6426;SDS011;3246;42.664;23.308;2022-12-07T00:31:53;31.43;;;14.60;;
6426;SDS011;3246;42.664;23.308;2022-12-07T00:34:20;24.60;;;15.10;;
6426;SDS011;3246;42.664;23.308;2022-12-07T00:36:47;22.97;;;13.80;;
6426;SDS011;3246;42.664;23.308;2022-12-07T00:39:13;23.03;;;14.90;;
6426;SDS011;3246;42.664;23.308;2022-12-07T00:41:41;24.37;;;14.23;;
6426;SDS011;3246;42.664;23.308;2022-12-07T00:44:08;30.70;;;15.63;;
6426;SDS011;3246;42.664;23.308;2022-12-07T00:46:34;26.20;;;15.53;;
6426;SDS011;3246;42.664;23.308;2022-12-07T00:49:01;26.33;;;13.17;;
6426;SDS011;3246;42.664;23.308;2022-12-07T00:51:27;21.97;;;14.17;;
6426;SDS011;3246;42.664;23.308;2022-12-07T00:53:54;20.40;;;14.47;;
6426;SDS011;3246;42.664;23.308;2022-12-07T00:56:21;24.23;;;14.50;;
6426;SDS011;3246;42.664;23.308;2022-12-07T00:58:53;22.37;;;15.07;;
6426;SDS011;3246;42.664;23.308;2022-12-07T01:01:21;19.77;;;14.47;;
6426;SDS011;3246;42.664;23.308;2022-12-07T01:03:47;23.70;;;13.47;;
6426;SDS011;3246;42.664;23.308;2022-12-07T01:06:14;23.43;;;12.30;;
6426;SDS011;3246;42.664;23.308;2022-12-07T01:08:41;22.10;;;13.33;;
6426;SDS011;3246;42.664;23.308;2022-12-07T01:11:09;24.87;;;15.87;;
6426;SDS011;3246;42.664;23.308;2022-12-07T01:13:35;26.83;;;17.43;;
6426;SDS011;3246;42.664;23.308;2022-12-07T01:16:04;32.03;;;17.10;;
6426;SDS011;3246;42.664;23.308;2022-12-07T01:18:32;40.20;;;18.43;;
6426;SDS011;3246;42.664;23.308;2022-12-07T01:21:00;32.93;;;18.60;;
6426;SDS011;3246;42.664;23.308;2022-12-07T01:23:26;28.27;;;16.67;;
6426;SDS011;3246;42.664;23.308;2022-12-07T01:25:54;23.87;;;15.43;;
6426;SDS011;3246;42.664;23.308;2022-12-07T01:28:20;31.70;;;18.57;;
6426;SDS011;3246;42.664;23.308;2022-12-07T01:30:54;34.13;;;18.93;;
6426;SDS011;3246;42.664;23.308;2022-12-07T01:33:21;36.83;;;20.87;;
6426;SDS011;3246;42.664;23.308;2022-12-07T01:35:48;37.00;;;21.83;;
6426;SDS011;3246;42.664;23.308;2022-12-07T01:38:14;35.90;;;21.27;;
6426;SDS011;3246;42.664;23.308;2022-12-07T01:40:41;39.53;;;21.07;;
6426;SDS011;3246;42.664;23.308;2022-12-07T01:43:09;32.90;;;19.37;;
6426;SDS011;3246;42.664;23.308;2022-12-07T01:45:40;32.73;;;20.13;;
6426;SDS011;3246;42.664;23.308;2022-12-07T01:48:07;35.47;;;19.23;;
6426;SDS011;3246;42.664;23.308;2022-12-07T01:50:37;34.17;;;20.47;;
6426;SDS011;3246;42.664;23.308;2022-12-07T01:53:04;37.60;;;20.50;;
6426;SDS011;3246;42.664;23.308;2022-12-07T01:55:32;34.93;;;18.47;;
6426;SDS011;3246;42.664;23.308;2022-12-07T01:58:00;38.23;;;20.23;;
6426;SDS011;3246;42.664;23.308;2022-12-07T02:00:27;32.07;;;20.40;;
6426;SDS011;3246;42.664;23.308;2022-12-07T02:02:54;32.00;;;21.80;;
6426;SDS011;3246;42.664;23.308;2022-12-07T02:05:21;37.10;;;21.47;;
6426;SDS011;3246;42.664;23.308;2022-12-07T02:07:50;40.93;;;21.60;;
6426;SDS011;3246;42.664;23.308;2022-12-07T02:10:19;28.47;;;19.30;;
6426;SDS011;3246;42.664;23.308;2022-12-07T02:12:46;31.23;;;20.27;;
6426;SDS011;3246;42.664;23.308;2022-12-07T02:15:13;34.40;;;20.13;;
6426;SDS011;3246;42.664;23.308;2022-12-07T02:17:41;34.67;;;19.50;;
6426;SDS011;3246;42.664;23.308;2022-12-07T02:20:17;32.10;;;20.10;;
6426;SDS011;3246;42.664;23.308;2022-12-07T02:22:54;39.67;;;19.73;;
6426;SDS011;3246;42.664;23.308;2022-12-07T02:25:30;34.30;;;19.23;;
6426;SDS011;3246;42.664;23.308;2022-12-07T02:28:00;29.90;;;19.07;;
6426;SDS011;3246;42.664;23.308;2022-12-07T02:30:31;30.43;;;18.23;;
6426;SDS011;3246;42.664;23.308;2022-12-07T02:33:00;37.37;;;19.87;;
6426;SDS011;3246;42.664;23.308;2022-12-07T02:35:30;28.70;;;17.77;;
6426;SDS011;3246;42.664;23.308;2022-12-07T02:38:00;29.67;;;17.67;;
6426;SDS011;3246;42.664;23.308;2022-12-07T02:40:29;36.77;;;18.50;;
6426;SDS011;3246;42.664;23.308;2022-12-07T02:42:58;25.57;;;17.13;;
6426;SDS011;3246;42.664;23.308;2022-12-07T02:45:26;29.40;;;16.93;;
6426;SDS011;3246;42.664;23.308;2022-12-07T02:47:56;30.53;;;18.80;;
6426;SDS011;3246;42.664;23.308;2022-12-07T02:50:24;32.07;;;18.03;;
6426;SDS011;3246;42.664;23.308;2022-12-07T02:52:50;27.53;;;16.93;;
6426;SDS011;3246;42.664;23.308;2022-12-07T02:55:17;24.70;;;16.93;;
6426;SDS011;3246;42.664;23.308;2022-12-07T02:57:48;27.70;;;16.47;;
6426;SDS011;3246;42.664;23.308;2022-12-07T03:00:20;28.80;;;17.47;;
6426;SDS011;3246;42.664;23.308;2022-12-07T03:02:50;29.30;;;16.77;;
6426;SDS011;3246;42.664;23.308;2022-12-07T03:05:27;28.53;;;17.57;;
6426;SDS011;3246;42.664;23.308;2022-12-07T03:07:59;29.30;;;16.30;;
6426;SDS011;3246;42.664;23.308;2022-12-07T03:10:29;30.17;;;16.60;;
6426;SDS011;3246;42.664;23.308;2022-12-07T03:13:00;33.00;;;16.93;;
6426;SDS011;3246;42.664;23.308;2022-12-07T03:15:29;24.77;;;17.27;;
6426;SDS011;3246;42.664;23.308;2022-12-07T03:17:57;25.97;;;16.30;;
6426;SDS011;3246;42.664;23.308;2022-12-07T03:20:27;31.77;;;18.17;;
6426;SDS011;3246;42.664;23.308;2022-12-07T03:22:55;28.43;;;16.43;;
6426;SDS011;3246;42.664;23.308;2022-12-07T03:25:22;32.37;;;16.83;;
6426;SDS011;3246;42.664;23.308;2022-12-07T03:27:49;27.33;;;16.87;;
6426;SDS011;3246;42.664;23.308;2022-12-07T03:30:21;28.10;;;17.10;;
6426;SDS011;3246;42.664;23.308;2022-12-07T03:32:49;31.03;;;17.63;;
6426;SDS011;3246;42.664;23.308;2022-12-07T03:35:18;29.90;;;17.67;;
6426;SDS011;3246;42.664;23.308;2022-12-07T03:37:49;30.20;;;15.73;;
6426;SDS011;3246;42.664;23.308;2022-12-07T03:40:18;29.43;;;17.33;;
6426;SDS011;3246;42.664;23.308;2022-12-07T03:42:47;28.43;;;15.77;;
6426;SDS011;3246;42.664;23.308;2022-12-07T03:45:14;30.97;;;17.87;;
6426;SDS011;3246;42.664;23.308;2022-12-07T03:47:43;27.57;;;17.33;;
6426;SDS011;3246;42.664;23.308;2022-12-07T03:50:12;29.60;;;16.87;;
6426;SDS011;3246;42.664;23.308;2022-12-07T03:52:41;36.67;;;18.43;;
6426;SDS011;3246;42.664;23.308;2022-12-07T03:55:11;36.43;;;19.73;;
6426;SDS011;3246;42.664;23.308;2022-12-07T03:57:39;33.43;;;20.40;;
6426;SDS011;3246;42.664;23.308;2022-12-07T04:00:07;43.20;;;20.40;;
6426;SDS011;3246;42.664;23.308;2022-12-07T04:02:34;36.77;;;21.03;;
6426;SDS011;3246;42.664;23.308;2022-12-07T04:05:01;29.10;;;20.03;;
6426;SDS011;3246;42.664;23.308;2022-12-07T04:07:28;34.20;;;21.47;;
6426;SDS011;3246;42.664;23.308;2022-12-07T04:09:56;41.17;;;21.40;;
6426;SDS011;3246;42.664;23.308;2022-12-07T04:12:23;36.53;;;21.33;;
6426;SDS011;3246;42.664;23.308;2022-12-07T04:14:50;32.70;;;21.30;;
6426;SDS011;3246;42.664;23.308;2022-12-07T04:17:17;37.00;;;18.93;;
6426;SDS011;3246;42.664;23.308;2022-12-07T04:19:43;30.37;;;19.67;;
6426;SDS011;3246;42.664;23.308;2022-12-07T04:22:09;37.73;;;19.30;;
6426;SDS011;3246;42.664;23.308;2022-12-07T04:24:36;36.43;;;20.77;;
6426;SDS011;3246;42.664;23.308;2022-12-07T04:27:03;31.33;;;20.00;;
6426;SDS011;3246;42.664;23.308;2022-12-07T04:29:30;35.43;;;20.00;;
6426;SDS011;3246;42.664;23.308;2022-12-07T04:31:57;34.30;;;18.60;;
6426;SDS011;3246;42.664;23.308;2022-12-07T04:34:23;36.93;;;21.23;;
6426;SDS011;3246;42.664;23.308;2022-12-07T04:36:50;34.43;;;20.90;;
6426;SDS011;3246;42.664;23.308;2022-12-07T04:39:18;36.40;;;23.33;;
6426;SDS011;3246;42.664;23.308;2022-12-07T04:41:45;37.27;;;20.27;;
6426;SDS011;3246;42.664;23.308;2022-12-07T04:44:11;34.30;;;20.60;;
6426;SDS011;3246;42.664;23.308;2022-12-07T04:46:41;40.57;;;23.40;;
6426;SDS011;3246;42.664;23.308;2022-12-07T04:49:08;39.37;;;22.67;;
6426;SDS011;3246;42.664;23.308;2022-12-07T04:51:34;35.57;;;20.60;;
6426;SDS011;3246;42.664;23.308;2022-12-07T04:54:01;36.70;;;21.47;;
6426;SDS011;3246;42.664;23.308;2022-12-07T04:56:27;33.03;;;20.30;;
6426;SDS011;3246;42.664;23.308;2022-12-07T04:58:54;33.43;;;20.53;;
6426;SDS011;3246;42.664;23.308;2022-12-07T05:01:21;42.23;;;22.50;;
6426;SDS011;3246;42.664;23.308;2022-12-07T05:03:49;39.07;;;22.67;;
6426;SDS011;3246;42.664;23.308;2022-12-07T05:06:16;40.67;;;23.67;;
6426;SDS011;3246;42.664;23.308;2022-12-07T05:08:42;36.73;;;24.90;;
6426;SDS011;3246;42.664;23.308;2022-12-07T05:11:09;45.97;;;25.37;;
6426;SDS011;3246;42.664;23.308;2022-12-07T05:13:56;40.00;;;23.70;;
6426;SDS011;3246;42.664;23.308;2022-12-07T05:16:22;43.53;;;23.30;;
6426;SDS011;3246;42.664;23.308;2022-12-07T05:18:50;34.57;;;22.90;;
6426;SDS011;3246;42.664;23.308;2022-12-07T05:21:17;43.00;;;24.07;;
6426;SDS011;3246;42.664;23.308;2022-12-07T05:23:43;42.73;;;24.60;;
6426;SDS011;3246;42.664;23.308;2022-12-07T05:26:10;40.33;;;22.77;;
6426;SDS011;3246;42.664;23.308;2022-12-07T05:28:36;37.20;;;24.23;;
6426;SDS011;3246;42.664;23.308;2022-12-07T05:31:03;38.27;;;24.33;;
6426;SDS011;3246;42.664;23.308;2022-12-07T05:33:29;96.90;;;59.97;;
6426;SDS011;3246;42.664;23.308;2022-12-07T05:35:57;37.43;;;23.20;;
6426;SDS011;3246;42.664;23.308;2022-12-07T05:38:24;34.33;;;22.03;;
6426;SDS011;3246;42.664;23.308;2022-12-07T05:40:51;37.60;;;20.50;;
6426;SDS011;3246;42.664;23.308;2022-12-07T05:43:17;33.37;;;18.57;;
6426;SDS011;3246;42.664;23.308;2022-12-07T05:45:44;30.17;;;17.17;;
6426;SDS011;3246;42.664;23.308;2022-12-07T05:48:10;31.93;;;19.50;;
6426;SDS011;3246;42.664;23.308;2022-12-07T05:50:37;33.20;;;19.20;;
6426;SDS011;3246;42.664;23.308;2022-12-07T05:53:05;55.63;;;38.87;;
6426;SDS011;3246;42.664;23.308;2022-12-07T05:55:31;33.77;;;20.90;;
6426;SDS011;3246;42.664;23.308;2022-12-07T05:57:58;40.60;;;23.47;;
6426;SDS011;3246;42.664;23.308;2022-12-07T06:00:42;39.90;;;23.83;;
6426;SDS011;3246;42.664;23.308;2022-12-07T06:03:08;40.57;;;24.60;;
6426;SDS011;3246;42.664;23.308;2022-12-07T06:05:35;38.93;;;23.50;;
6426;SDS011;3246;42.664;23.308;2022-12-07T06:08:01;36.97;;;23.00;;
6426;SDS011;3246;42.664;23.308;2022-12-07T06:10:29;46.53;;;23.83;;
6426;SDS011;3246;42.664;23.308;2022-12-07T06:12:56;48.20;;;24.33;;
6426;SDS011;3246;42.664;23.308;2022-12-07T06:15:21;40.20;;;20.47;;
6426;SDS011;3246;42.664;23.308;2022-12-07T06:17:48;30.43;;;18.80;;
6426;SDS011;3246;42.664;23.308;2022-12-07T06:20:14;36.27;;;22.63;;
6426;SDS011;3246;42.664;23.308;2022-12-07T06:22:41;32.70;;;19.33;;
6426;SDS011;3246;42.664;23.308;2022-12-07T06:25:08;45.07;;;21.20;;
6426;SDS011;3246;42.664;23.308;2022-12-07T06:27:36;36.43;;;19.23;;
6426;SDS011;3246;42.664;23.308;2022-12-07T06:30:03;34.13;;;17.43;;
6426;SDS011;3246;42.664;23.308;2022-12-07T06:32:31;28.60;;;17.47;;
6426;SDS011;3246;42.664;23.308;2022-12-07T06:34:58;30.20;;;18.93;;
6426;SDS011;3246;42.664;23.308;2022-12-07T06:37:24;37.27;;;18.53;;
6426;SDS011;3246;42.664;23.308;2022-12-07T06:39:51;34.47;;;19.13;;
6426;SDS011;3246;42.664;23.308;2022-12-07T06:42:17;31.33;;;18.20;;
6426;SDS011;3246;42.664;23.308;2022-12-07T06:44:45;42.83;;;20.80;;
6426;SDS011;3246;42.664;23.308;2022-12-07T06:47:11;32.80;;;20.20;;
6426;SDS011;3246;42.664;23.308;2022-12-07T06:49:38;35.13;;;20.70;;
6426;SDS011;3246;42.664;23.308;2022-12-07T06:52:04;39.87;;;18.73;;
6426;SDS011;3246;42.664;23.308;2022-12-07T06:54:31;30.20;;;19.63;;
6426;SDS011;3246;42.664;23.308;2022-12-07T06:56:57;35.37;;;18.97;;
6426;SDS011;3246;42.664;23.308;2022-12-07T06:59:24;38.80;;;21.77;;
6426;SDS011;3246;42.664;23.308;2022-12-07T07:01:52;38.57;;;22.77;;
6426;SDS011;3246;42.664;23.308;2022-12-07T07:04:18;48.40;;;29.27;;
6426;SDS011;3246;42.664;23.308;2022-12-07T07:06:45;44.87;;;29.73;;
6426;SDS011;3246;42.664;23.308;2022-12-07T07:09:12;49.97;;;29.27;;
6426;SDS011;3246;42.664;23.308;2022-12-07T07:11:38;56.17;;;33.13;;
6426;SDS011;3246;42.664;23.308;2022-12-07T07:14:05;63.20;;;37.57;;
6426;SDS011;3246;42.664;23.308;2022-12-07T07:16:31;51.53;;;33.67;;
6426;SDS011;3246;42.664;23.308;2022-12-07T07:18:59;64.20;;;32.73;;
6426;SDS011;3246;42.664;23.308;2022-12-07T07:21:26;54.20;;;29.13;;
6426;SDS011;3246;42.664;23.308;2022-12-07T07:23:52;50.27;;;29.00;;
6426;SDS011;3246;42.664;23.308;2022-12-07T07:26:19;47.73;;;27.77;;
6426;SDS011;3246;42.664;23.308;2022-12-07T07:28:45;44.90;;;26.53;;
6426;SDS011;3246;42.664;23.308;2022-12-07T07:31:12;42.40;;;26.27;;
6426;SDS011;3246;42.664;23.308;2022-12-07T07:33:38;39.87;;;24.67;;
6426;SDS011;3246;42.664;23.308;2022-12-07T07:36:07;46.93;;;26.03;;
6426;SDS011;3246;42.664;23.308;2022-12-07T07:38:33;46.23;;;25.50;;
6426;SDS011;3246;42.664;23.308;2022-12-07T07:41:00;43.77;;;26.13;;
6426;SDS011;3246;42.664;23.308;2022-12-07T07:43:26;44.93;;;26.13;;
6426;SDS011;3246;42.664;23.308;2022-12-07T07:45:53;42.13;;;26.53;;
6426;SDS011;3246;42.664;23.308;2022-12-07T07:48:19;50.80;;;25.33;;
6426;SDS011;3246;42.664;23.308;2022-12-07T07:50:47;47.67;;;27.00;;
6426;SDS011;3246;42.664;23.308;2022-12-07T07:53:15;45.10;;;28.67;;
6426;SDS011;3246;42.664;23.308;2022-12-07T07:55:43;44.43;;;25.67;;
6426;SDS011;3246;42.664;23.308;2022-12-07T07:58:15;48.03;;;25.13;;
6426;SDS011;3246;42.664;23.308;2022-12-07T08:00:42;44.97;;;25.67;;
6426;SDS011;3246;42.664;23.308;2022-12-07T08:03:09;50.33;;;32.00;;
6426;SDS011;3246;42.664;23.308;2022-12-07T08:05:36;48.43;;;26.80;;
6426;SDS011;3246;42.664;23.308;2022-12-07T08:08:03;60.27;;;36.37;;
6426;SDS011;3246;42.664;23.308;2022-12-07T08:10:31;64.47;;;38.70;;
6426;SDS011;3246;42.664;23.308;2022-12-07T08:12:59;61.80;;;39.57;;
6426;SDS011;3246;42.664;23.308;2022-12-07T08:15:39;62.03;;;42.40;;
6426;SDS011;3246;42.664;23.308;2022-12-07T08:18:06;67.57;;;41.40;;
6426;SDS011;3246;42.664;23.308;2022-12-07T08:20:33;62.67;;;39.07;;
6426;SDS011;3246;42.664;23.308;2022-12-07T08:23:00;57.27;;;36.20;;
6426;SDS011;3246;42.664;23.308;2022-12-07T08:25:26;58.10;;;36.57;;
6426;SDS011;3246;42.664;23.308;2022-12-07T08:27:54;66.40;;;37.10;;
6426;SDS011;3246;42.664;23.308;2022-12-07T08:30:21;54.67;;;32.50;;
6426;SDS011;3246;42.664;23.308;2022-12-07T08:32:48;49.93;;;30.30;;
6426;SDS011;3246;42.664;23.308;2022-12-07T08:35:15;54.27;;;33.27;;
6426;SDS011;3246;42.664;23.308;2022-12-07T08:37:41;51.40;;;30.60;;
6426;SDS011;3246;42.664;23.308;2022-12-07T08:40:08;51.27;;;29.10;;
6426;SDS011;3246;42.664;23.308;2022-12-07T08:42:36;45.90;;;27.80;;
6426;SDS011;3246;42.664;23.308;2022-12-07T08:45:08;49.47;;;31.33;;
6426;SDS011;3246;42.664;23.308;2022-12-07T08:47:35;46.90;;;29.10;;
6426;SDS011;3246;42.664;23.308;2022-12-07T08:50:02;53.00;;;29.67;;
6426;SDS011;3246;42.664;23.308;2022-12-07T08:52:30;53.43;;;28.53;;
6426;SDS011;3246;42.664;23.308;2022-12-07T08:54:56;47.53;;;28.50;;
6426;SDS011;3246;42.664;23.308;2022-12-07T08:57:23;46.50;;;27.83;;
6426;SDS011;3246;42.664;23.308;2022-12-07T08:59:50;41.83;;;28.00;;
6426;SDS011;3246;42.664;23.308;2022-12-07T09:02:18;44.47;;;27.07;;
6426;SDS011;3246;42.664;23.308;2022-12-07T09:04:44;55.13;;;28.73;;
6426;SDS011;3246;42.664;23.308;2022-12-07T09:07:11;44.17;;;29.47;;
6426;SDS011;3246;42.664;23.308;2022-12-07T09:09:37;43.87;;;27.70;;
6426;SDS011;3246;42.664;23.308;2022-12-07T09:12:04;47.97;;;28.03;;
6426;SDS011;3246;42.664;23.308;2022-12-07T09:14:30;45.63;;;27.50;;
6426;SDS011;3246;42.664;23.308;2022-12-07T09:17:04;44.90;;;27.50;;
6426;SDS011;3246;42.664;23.308;2022-12-07T09:19:32;57.73;;;28.60;;
6426;SDS011;3246;42.664;23.308;2022-12-07T09:21:59;52.23;;;28.70;;
6426;SDS011;3246;42.664;23.308;2022-12-07T09:24:26;46.07;;;29.90;;
6426;SDS011;3246;42.664;23.308;2022-12-07T09:26:52;47.87;;;27.43;;
6426;SDS011;3246;42.664;23.308;2022-12-07T09:29:19;46.63;;;26.57;;
6426;SDS011;3246;42.664;23.308;2022-12-07T09:31:45;37.07;;;25.30;;
6426;SDS011;3246;42.664;23.308;2022-12-07T09:34:12;35.47;;;23.77;;
6426;SDS011;3246;42.664;23.308;2022-12-07T09:36:40;41.67;;;24.13;;
6426;SDS011;3246;42.664;23.308;2022-12-07T09:39:07;42.53;;;24.33;;
6426;SDS011;3246;42.664;23.308;2022-12-07T09:41:36;49.20;;;25.67;;
6426;SDS011;3246;42.664;23.308;2022-12-07T09:44:04;40.77;;;24.97;;
6426;SDS011;3246;42.664;23.308;2022-12-07T09:46:33;32.53;;;21.80;;
6426;SDS011;3246;42.664;23.308;2022-12-07T09:49:00;35.20;;;21.40;;
6426;SDS011;3246;42.664;23.308;2022-12-07T09:51:27;31.07;;;21.60;;
6426;SDS011;3246;42.664;23.308;2022-12-07T09:53:56;31.87;;;19.80;;
6426;SDS011;3246;42.664;23.308;2022-12-07T09:56:23;35.63;;;19.40;;
6426;SDS011;3246;42.664;23.308;2022-12-07T09:58:51;33.97;;;19.30;;
6426;SDS011;3246;42.664;23.308;2022-12-07T10:01:21;29.07;;;19.23;;
6426;SDS011;3246;42.664;23.308;2022-12-07T10:03:49;36.87;;;20.00;;
6426;SDS011;3246;42.664;23.308;2022-12-07T10:06:16;36.07;;;19.57;;
6426;SDS011;3246;42.664;23.308;2022-12-07T10:08:42;43.47;;;20.40;;
6426;SDS011;3246;42.664;23.308;2022-12-07T10:11:11;38.33;;;20.17;;
6426;SDS011;3246;42.664;23.308;2022-12-07T10:13:40;28.97;;;19.83;;
6426;SDS011;3246;42.664;23.308;2022-12-07T10:16:09;35.73;;;21.03;;
6426;SDS011;3246;42.664;23.308;2022-12-07T10:18:53;31.43;;;19.93;;
6426;SDS011;3246;42.664;23.308;2022-12-07T10:21:20;35.13;;;19.67;;
6426;SDS011;3246;42.664;23.308;2022-12-07T10:24:01;42.53;;;21.40;;
6426;SDS011;3246;42.664;23.308;2022-12-07T10:26:33;36.00;;;20.03;;
6426;SDS011;3246;42.664;23.308;2022-12-07T10:29:00;30.50;;;19.03;;
6426;SDS011;3246;42.664;23.308;2022-12-07T10:31:27;37.70;;;21.33;;
6426;SDS011;3246;42.664;23.308;2022-12-07T10:33:55;37.33;;;20.63;;
6426;SDS011;3246;42.664;23.308;2022-12-07T10:36:22;33.77;;;19.43;;
6426;SDS011;3246;42.664;23.308;2022-12-07T10:38:49;37.67;;;21.17;;
6426;SDS011;3246;42.664;23.308;2022-12-07T10:41:16;32.43;;;20.73;;
6426;SDS011;3246;42.664;23.308;2022-12-07T10:43:49;39.70;;;23.00;;
6426;SDS011;3246;42.664;23.308;2022-12-07T10:49:05;37.57;;;21.77;;
6426;SDS011;3246;42.664;23.308;2022-12-07T10:51:35;43.30;;;23.23;;
6426;SDS011;3246;42.664;23.308;2022-12-07T10:54:08;32.67;;;21.27;;
6426;SDS011;3246;42.664;23.308;2022-12-07T10:59:30;33.70;;;20.43;;
6426;SDS011;3246;42.664;23.308;2022-12-07T11:02:06;35.07;;;21.60;;
6426;SDS011;3246;42.664;23.308;2022-12-07T11:04:39;35.17;;;22.73;;
6426;SDS011;3246;42.664;23.308;2022-12-07T11:07:10;35.00;;;21.17;;
6426;SDS011;3246;42.664;23.308;2022-12-07T11:09:42;36.10;;;21.37;;
6426;SDS011;3246;42.664;23.308;2022-12-07T11:12:13;38.83;;;21.70;;
6426;SDS011;3246;42.664;23.308;2022-12-07T11:14:47;32.77;;;21.07;;
6426;SDS011;3246;42.664;23.308;2022-12-07T11:17:18;35.53;;;20.23;;
6426;SDS011;3246;42.664;23.308;2022-12-07T11:19:49;36.70;;;20.30;;
6426;SDS011;3246;42.664;23.308;2022-12-07T11:22:19;37.67;;;20.17;;
6426;SDS011;3246;42.664;23.308;2022-12-07T11:24:49;28.93;;;18.57;;
6426;SDS011;3246;42.664;23.308;2022-12-07T11:27:19;28.87;;;18.87;;
6426;SDS011;3246;42.664;23.308;2022-12-07T11:29:55;38.47;;;18.90;;
6426;SDS011;3246;42.664;23.308;2022-12-07T11:32:32;39.67;;;19.40;;
6426;SDS011;3246;42.664;23.308;2022-12-07T11:35:03;28.57;;;18.40;;
6426;SDS011;3246;42.664;23.308;2022-12-07T11:37:32;49.27;;;31.93;;
6426;SDS011;3246;42.664;23.308;2022-12-07T11:40:00;50.90;;;29.90;;
6426;SDS011;3246;42.664;23.308;2022-12-07T11:42:29;25.97;;;17.33;;
6426;SDS011;3246;42.664;23.308;2022-12-07T11:44:59;27.93;;;18.07;;
6426;SDS011;3246;42.664;23.308;2022-12-07T11:47:28;40.40;;;18.80;;
6426;SDS011;3246;42.664;23.308;2022-12-07T11:49:58;31.13;;;17.07;;
6426;SDS011;3246;42.664;23.308;2022-12-07T11:52:30;31.93;;;18.13;;
6426;SDS011;3246;42.664;23.308;2022-12-07T11:54:58;34.83;;;18.23;;
6426;SDS011;3246;42.664;23.308;2022-12-07T11:57:28;33.90;;;18.77;;
6426;SDS011;3246;42.664;23.308;2022-12-07T11:59:59;32.50;;;17.93;;
6426;SDS011;3246;42.664;23.308;2022-12-07T12:02:28;25.60;;;15.87;;
6426;SDS011;3246;42.664;23.308;2022-12-07T12:04:58;25.00;;;15.77;;
6426;SDS011;3246;42.664;23.308;2022-12-07T12:07:28;26.83;;;16.50;;
6426;SDS011;3246;42.664;23.308;2022-12-07T12:09:55;24.53;;;16.70;;
6426;SDS011;3246;42.664;23.308;2022-12-07T12:12:29;27.57;;;16.33;;
6426;SDS011;3246;42.664;23.308;2022-12-07T12:15:06;26.90;;;15.90;;
6426;SDS011;3246;42.664;23.308;2022-12-07T12:20:23;30.43;;;16.37;;
6426;SDS011;3246;42.664;23.308;2022-12-07T12:22:53;31.10;;;16.87;;
6426;SDS011;3246;42.664;23.308;2022-12-07T12:25:22;31.90;;;18.87;;
6426;SDS011;3246;42.664;23.308;2022-12-07T12:27:50;29.45;;;17.35;;
6426;SDS011;3246;42.664;23.308;2022-12-07T12:30:29;23.85;;;17.40;;
6426;SDS011;3246;42.664;23.308;2022-12-07T12:33:01;28.10;;;15.45;;
6426;SDS011;3246;42.664;23.308;2022-12-07T12:35:29;26.08;;;15.70;;
6426;SDS011;3246;42.664;23.308;2022-12-07T12:38:20;25.93;;;17.03;;
6426;SDS011;3246;42.664;23.308;2022-12-07T12:40:46;26.43;;;16.03;;
6426;SDS011;3246;42.664;23.308;2022-12-07T12:48:40;33.65;;;18.33;;
6426;SDS011;3246;42.664;23.308;2022-12-07T12:54:03;23.02;;;15.70;;
6426;SDS011;3246;42.664;23.308;2022-12-07T12:56:34;29.25;;;16.90;;
6426;SDS011;3246;42.664;23.308;2022-12-07T12:59:18;31.13;;;15.25;;
6426;SDS011;3246;42.664;23.308;2022-12-07T13:01:47;27.02;;;15.18;;
6426;SDS011;3246;42.664;23.308;2022-12-07T13:04:18;25.00;;;14.60;;
6426;SDS011;3246;42.664;23.308;2022-12-07T13:06:47;32.03;;;15.98;;
6426;SDS011;3246;42.664;23.308;2022-12-07T13:09:17;22.38;;;16.70;;
6426;SDS011;3246;42.664;23.308;2022-12-07T13:11:46;21.00;;;15.15;;
6426;SDS011;3246;42.664;23.308;2022-12-07T13:16:58;24.17;;;14.60;;
6426;SDS011;3246;42.664;23.308;2022-12-07T13:22:41;23.10;;;14.25;;
6426;SDS011;3246;42.664;23.308;2022-12-07T13:25:09;23.30;;;14.15;;
6426;SDS011;3246;42.664;23.308;2022-12-07T13:27:37;22.00;;;13.18;;
6426;SDS011;3246;42.664;23.308;2022-12-07T13:30:07;20.45;;;13.20;;
6426;SDS011;3246;42.664;23.308;2022-12-07T13:32:37;20.45;;;13.88;;
6426;SDS011;3246;42.664;23.308;2022-12-07T13:37:48;24.98;;;14.38;;
6426;SDS011;3246;42.664;23.308;2022-12-07T13:40:16;22.00;;;14.35;;
6426;SDS011;3246;42.664;23.308;2022-12-07T13:42:44;24.38;;;14.18;;
6426;SDS011;3246;42.664;23.308;2022-12-07T13:45:20;26.75;;;13.15;;
6426;SDS011;3246;42.664;23.308;2022-12-07T13:47:48;19.70;;;12.77;;
6426;SDS011;3246;42.664;23.308;2022-12-07T13:50:21;21.00;;;13.32;;
6426;SDS011;3246;42.664;23.308;2022-12-07T13:52:50;17.88;;;11.50;;
6426;SDS011;3246;42.664;23.308;2022-12-07T13:55:16;18.33;;;11.02;;
6426;SDS011;3246;42.664;23.308;2022-12-07T13:57:44;17.00;;;10.27;;
6426;SDS011;3246;42.664;23.308;2022-12-07T14:02:53;14.05;;;10.48;;
6426;SDS011;3246;42.664;23.308;2022-12-07T14:05:23;17.27;;;10.80;;
6426;SDS011;3246;42.664;23.308;2022-12-07T14:07:54;19.30;;;12.70;;
6426;SDS011;3246;42.664;23.308;2022-12-07T14:10:23;19.95;;;10.43;;
6426;SDS011;3246;42.664;23.308;2022-12-07T14:12:50;21.52;;;10.63;;
6426;SDS011;3246;42.664;23.308;2022-12-07T14:15:19;19.85;;;12.10;;
6426;SDS011;3246;42.664;23.308;2022-12-07T14:17:49;26.60;;;12.52;;
6426;SDS011;3246;42.664;23.308;2022-12-07T14:20:29;23.35;;;11.88;;
6426;SDS011;3246;42.664;23.308;2022-12-07T14:22:57;23.38;;;12.45;;
6426;SDS011;3246;42.664;23.308;2022-12-07T14:25:24;22.90;;;12.43;;
6426;SDS011;3246;42.664;23.308;2022-12-07T14:27:55;36.05;;;13.77;;
6426;SDS011;3246;42.664;23.308;2022-12-07T14:30:24;34.78;;;13.93;;
6426;SDS011;3246;42.664;23.308;2022-12-07T14:32:51;21.95;;;12.73;;
6426;SDS011;3246;42.664;23.308;2022-12-07T14:35:18;20.77;;;11.65;;
6426;SDS011;3246;42.664;23.308;2022-12-07T14:37:45;27.30;;;11.82;;
6426;SDS011;3246;42.664;23.308;2022-12-07T14:40:14;19.67;;;10.98;;
6426;SDS011;3246;42.664;23.308;2022-12-07T14:42:41;21.90;;;12.15;;
6426;SDS011;3246;42.664;23.308;2022-12-07T14:45:11;17.77;;;10.57;;
6426;SDS011;3246;42.664;23.308;2022-12-07T14:47:39;19.33;;;11.32;;
6426;SDS011;3246;42.664;23.308;2022-12-07T14:50:06;15.73;;;10.65;;
6426;SDS011;3246;42.664;23.308;2022-12-07T14:52:32;22.45;;;12.20;;
6426;SDS011;3246;42.664;23.308;2022-12-07T14:54:59;30.15;;;12.02;;
6426;SDS011;3246;42.664;23.308;2022-12-07T14:57:27;29.33;;;12.00;;
6426;SDS011;3246;42.664;23.308;2022-12-07T14:59:53;26.42;;;12.15;;
6426;SDS011;3246;42.664;23.308;2022-12-07T15:02:20;22.37;;;11.40;;
6426;SDS011;3246;42.664;23.308;2022-12-07T15:04:46;23.13;;;12.70;;
6426;SDS011;3246;42.664;23.308;2022-12-07T15:07:15;28.98;;;13.18;;